sensor_id;sensor_type;location;lat;lon;timestamp;temperature;humidity
64654;DHT22;51065;48.884;12.598;2022-09-16T00:02:22;11.30;99.90
64654;DHT22;51065;48.884;12.598;2022-09-16T00:04:48;11.30;99.90
64654;DHT22;51065;48.884;12.598;2022-09-16T00:07:13;11.20;99.90
64654;DHT22;51065;48.884;12.598;2022-09-16T00:09:39;11.10;99.90
64654;DHT22;51065;48.884;12.598;2022-09-16T00:12:06;11.00;99.90
64654;DHT22;51065;48.884;12.598;2022-09-16T00:14:32;10.90;99.90
64654;DHT22;51065;48.884;12.598;2022-09-16T00:16:58;10.70;99.90
64654;DHT22;51065;48.884;12.598;2022-09-16T00:19:23;10.60;99.90
64654;DHT22;51065;48.884;12.598;2022-09-16T00:21:49;10.40;99.90
64654;DHT22;51065;48.884;12.598;2022-09-16T00:24:15;10.30;99.90
64654;DHT22;51065;48.884;12.598;2022-09-16T00:26:43;10.30;99.90
64654;DHT22;51065;48.884;12.598;2022-09-16T00:29:09;10.20;99.90
64654;DHT22;51065;48.884;12.598;2022-09-16T00:31:35;10.20;99.90
64654;DHT22;51065;48.884;12.598;2022-09-16T00:34:01;10.10;99.90
64654;DHT22;51065;48.884;12.598;2022-09-16T00:36:27;10.10;99.90
64654;DHT22;51065;48.884;12.598;2022-09-16T00:38:54;10.00;99.90
64654;DHT22;51065;48.884;12.598;2022-09-16T00:41:23;9.90;99.90
64654;DHT22;51065;48.884;12.598;2022-09-16T00:43:56;9.90;99.90
64654;DHT22;51065;48.884;12.598;2022-09-16T00:48:55;10.00;99.90
64654;DHT22;51065;48.884;12.598;2022-09-16T00:51:21;10.00;99.90
64654;DHT22;51065;48.884;12.598;2022-09-16T00:53:52;10.00;99.90
64654;DHT22;51065;48.884;12.598;2022-09-16T00:56:21;10.00;99.90
64654;DHT22;51065;48.884;12.598;2022-09-16T00:58:59;10.10;99.90
64654;DHT22;51065;48.884;12.598;2022-09-16T01:01:27;10.00;99.90
64654;DHT22;51065;48.884;12.598;2022-09-16T01:03:54;10.00;99.90
64654;DHT22;51065;48.884;12.598;2022-09-16T01:06:23;10.00;99.90
64654;DHT22;51065;48.884;12.598;2022-09-16T01:08:50;10.10;99.90
64654;DHT22;51065;48.884;12.598;2022-09-16T01:11:16;10.20;99.90
64654;DHT22;51065;48.884;12.598;2022-09-16T01:13:42;10.10;99.90
64654;DHT22;51065;48.884;12.598;2022-09-16T01:37:48;10.40;99.90
64654;DHT22;51065;48.884;12.598;2022-09-16T01:43:06;10.20;99.90
64654;DHT22;51065;48.884;12.598;2022-09-16T01:48:40;10.00;99.90
64654;DHT22;51065;48.884;12.598;2022-09-16T01:51:36;10.00;99.90
64654;DHT22;51065;48.884;12.598;2022-09-16T01:57:06;10.10;99.90
64654;DHT22;51065;48.884;12.598;2022-09-16T01:59:57;10.10;99.90
64654;DHT22;51065;48.884;12.598;2022-09-16T02:03:10;10.10;99.90
64654;DHT22;51065;48.884;12.598;2022-09-16T02:08:00;10.00;99.90
64654;DHT22;51065;48.884;12.598;2022-09-16T02:10:29;9.90;99.90
64654;DHT22;51065;48.884;12.598;2022-09-16T02:13:05;9.80;99.90
64654;DHT22;51065;48.884;12.598;2022-09-16T02:15:34;9.80;99.90
64654;DHT22;51065;48.884;12.598;2022-09-16T02:18:10;9.90;99.90
64654;DHT22;51065;48.884;12.598;2022-09-16T02:20:40;9.90;99.90
64654;DHT22;51065;48.884;12.598;2022-09-16T02:23:24;9.90;99.90
64654;DHT22;51065;48.884;12.598;2022-09-16T02:25:53;9.90;99.90
64654;DHT22;51065;48.884;12.598;2022-09-16T02:28:25;9.80;99.90
64654;DHT22;51065;48.884;12.598;2022-09-16T02:30:55;9.80;99.90
64654;DHT22;51065;48.884;12.598;2022-09-16T02:33:24;9.70;99.90
64654;DHT22;51065;48.884;12.598;2022-09-16T02:35:53;9.70;99.90
64654;DHT22;51065;48.884;12.598;2022-09-16T02:38:21;9.70;99.90
64654;DHT22;51065;48.884;12.598;2022-09-16T02:40:55;9.80;99.90
64654;DHT22;51065;48.884;12.598;2022-09-16T02:43:22;9.80;99.90
64654;DHT22;51065;48.884;12.598;2022-09-16T02:45:54;10.00;99.90
64654;DHT22;51065;48.884;12.598;2022-09-16T02:48:33;10.10;99.90
64654;DHT22;51065;48.884;12.598;2022-09-16T02:51:15;10.30;99.90
64654;DHT22;51065;48.884;12.598;2022-09-16T02:53:58;10.40;99.90
64654;DHT22;51065;48.884;12.598;2022-09-16T02:56:35;10.50;99.90
64654;DHT22;51065;48.884;12.598;2022-09-16T02:59:02;10.50;99.90
64654;DHT22;51065;48.884;12.598;2022-09-16T03:01:32;10.60;99.90
64654;DHT22;51065;48.884;12.598;2022-09-16T03:03:58;10.60;99.90
64654;DHT22;51065;48.884;12.598;2022-09-16T03:06:26;10.60;99.90
64654;DHT22;51065;48.884;12.598;2022-09-16T03:08:55;10.70;99.90
64654;DHT22;51065;48.884;12.598;2022-09-16T03:11:42;10.80;99.90
64654;DHT22;51065;48.884;12.598;2022-09-16T03:14:31;10.90;99.90
64654;DHT22;51065;48.884;12.598;2022-09-16T03:17:22;11.00;99.90
64654;DHT22;51065;48.884;12.598;2022-09-16T03:23:22;11.10;99.90
64654;DHT22;51065;48.884;12.598;2022-09-16T03:26:03;11.20;99.90
64654;DHT22;51065;48.884;12.598;2022-09-16T03:28:53;11.30;99.90
64654;DHT22;51065;48.884;12.598;2022-09-16T03:34:55;11.20;99.90
64654;DHT22;51065;48.884;12.598;2022-09-16T03:37:04;11.20;99.90
64654;DHT22;51065;48.884;12.598;2022-09-16T03:39:31;11.20;99.90
64654;DHT22;51065;48.884;12.598;2022-09-16T03:42:05;11.20;99.90
64654;DHT22;51065;48.884;12.598;2022-09-16T03:44:34;11.10;99.90
64654;DHT22;51065;48.884;12.598;2022-09-16T03:47:00;11.20;99.90
64654;DHT22;51065;48.884;12.598;2022-09-16T03:49:26;11.20;99.90
64654;DHT22;51065;48.884;12.598;2022-09-16T03:51:52;11.10;99.90
64654;DHT22;51065;48.884;12.598;2022-09-16T03:54:18;11.10;99.90
64654;DHT22;51065;48.884;12.598;2022-09-16T03:56:43;11.10;99.90
64654;DHT22;51065;48.884;12.598;2022-09-16T03:59:09;11.20;99.90
64654;DHT22;51065;48.884;12.598;2022-09-16T04:01:34;11.20;99.90
64654;DHT22;51065;48.884;12.598;2022-09-16T04:04:00;11.20;99.90
64654;DHT22;51065;48.884;12.598;2022-09-16T04:06:25;11.30;99.90
64654;DHT22;51065;48.884;12.598;2022-09-16T04:08:51;11.30;99.90
64654;DHT22;51065;48.884;12.598;2022-09-16T04:11:17;11.30;99.90
64654;DHT22;51065;48.884;12.598;2022-09-16T04:13:43;11.40;99.90
64654;DHT22;51065;48.884;12.598;2022-09-16T04:16:09;11.40;99.90
64654;DHT22;51065;48.884;12.598;2022-09-16T04:18:34;11.50;99.90
64654;DHT22;51065;48.884;12.598;2022-09-16T04:21:01;11.50;99.90
64654;DHT22;51065;48.884;12.598;2022-09-16T04:23:28;11.60;99.90
64654;DHT22;51065;48.884;12.598;2022-09-16T04:26:00;11.60;99.90
64654;DHT22;51065;48.884;12.598;2022-09-16T04:28:27;11.70;99.90
64654;DHT22;51065;48.884;12.598;2022-09-16T04:31:01;11.70;99.90
64654;DHT22;51065;48.884;12.598;2022-09-16T04:33:29;11.80;99.90
64654;DHT22;51065;48.884;12.598;2022-09-16T04:36:04;11.80;99.90
64654;DHT22;51065;48.884;12.598;2022-09-16T04:38:30;11.80;99.90
64654;DHT22;51065;48.884;12.598;2022-09-16T04:41:05;11.80;99.90
64654;DHT22;51065;48.884;12.598;2022-09-16T04:43:31;11.80;99.90
64654;DHT22;51065;48.884;12.598;2022-09-16T04:45:57;11.80;99.90
64654;DHT22;51065;48.884;12.598;2022-09-16T04:48:23;11.90;99.90
64654;DHT22;51065;48.884;12.598;2022-09-16T04:50:50;11.90;99.90
64654;DHT22;51065;48.884;12.598;2022-09-16T04:53:16;11.90;99.90
64654;DHT22;51065;48.884;12.598;2022-09-16T04:55:42;12.00;99.90
64654;DHT22;51065;48.884;12.598;2022-09-16T04:58:07;12.00;99.90
64654;DHT22;51065;48.884;12.598;2022-09-16T05:00:33;12.00;99.90
64654;DHT22;51065;48.884;12.598;2022-09-16T05:02:58;12.00;99.90
64654;DHT22;51065;48.884;12.598;2022-09-16T05:05:24;12.00;99.90
64654;DHT22;51065;48.884;12.598;2022-09-16T05:07:49;12.00;99.90
64654;DHT22;51065;48.884;12.598;2022-09-16T05:10:15;12.00;99.90
64654;DHT22;51065;48.884;12.598;2022-09-16T05:12:40;12.00;99.90
64654;DHT22;51065;48.884;12.598;2022-09-16T05:15:07;12.00;99.90
64654;DHT22;51065;48.884;12.598;2022-09-16T05:17:32;12.00;99.90
64654;DHT22;51065;48.884;12.598;2022-09-16T05:19:58;12.00;99.90
64654;DHT22;51065;48.884;12.598;2022-09-16T05:22:23;12.00;99.90
64654;DHT22;51065;48.884;12.598;2022-09-16T05:24:49;12.00;99.90
64654;DHT22;51065;48.884;12.598;2022-09-16T05:27:15;12.00;99.90
64654;DHT22;51065;48.884;12.598;2022-09-16T05:29:40;12.10;99.90
64654;DHT22;51065;48.884;12.598;2022-09-16T05:32:06;12.10;99.90
64654;DHT22;51065;48.884;12.598;2022-09-16T05:34:33;12.10;99.90
64654;DHT22;51065;48.884;12.598;2022-09-16T05:37:01;12.10;99.90
64654;DHT22;51065;48.884;12.598;2022-09-16T05:39:27;12.20;99.90
64654;DHT22;51065;48.884;12.598;2022-09-16T05:41:57;12.20;99.90
64654;DHT22;51065;48.884;12.598;2022-09-16T05:44:23;12.20;99.90
64654;DHT22;51065;48.884;12.598;2022-09-16T05:46:49;12.20;99.90
64654;DHT22;51065;48.884;12.598;2022-09-16T05:49:15;12.30;99.90
64654;DHT22;51065;48.884;12.598;2022-09-16T05:51:46;12.30;99.90
64654;DHT22;51065;48.884;12.598;2022-09-16T05:54:12;12.30;99.90
64654;DHT22;51065;48.884;12.598;2022-09-16T05:56:37;12.30;99.90
64654;DHT22;51065;48.884;12.598;2022-09-16T05:59:03;12.30;99.90
64654;DHT22;51065;48.884;12.598;2022-09-16T06:01:31;12.30;99.90
64654;DHT22;51065;48.884;12.598;2022-09-16T06:03:58;12.40;99.90
64654;DHT22;51065;48.884;12.598;2022-09-16T06:06:29;12.40;99.90
64654;DHT22;51065;48.884;12.598;2022-09-16T06:09:04;12.50;99.90
64654;DHT22;51065;48.884;12.598;2022-09-16T06:11:30;12.60;99.90
64654;DHT22;51065;48.884;12.598;2022-09-16T06:13:57;12.80;99.90
64654;DHT22;51065;48.884;12.598;2022-09-16T06:16:25;13.00;99.90
64654;DHT22;51065;48.884;12.598;2022-09-16T06:18:52;13.20;99.90
64654;DHT22;51065;48.884;12.598;2022-09-16T06:21:17;13.30;99.90
64654;DHT22;51065;48.884;12.598;2022-09-16T06:23:43;13.50;99.90
64654;DHT22;51065;48.884;12.598;2022-09-16T06:26:15;13.80;99.90
64654;DHT22;51065;48.884;12.598;2022-09-16T06:28:41;14.00;99.90
64654;DHT22;51065;48.884;12.598;2022-09-16T06:33:38;14.00;99.90
64654;DHT22;51065;48.884;12.598;2022-09-16T06:36:10;14.00;99.90
64654;DHT22;51065;48.884;12.598;2022-09-16T06:38:36;14.00;99.90
64654;DHT22;51065;48.884;12.598;2022-09-16T06:41:04;14.00;99.90
64654;DHT22;51065;48.884;12.598;2022-09-16T06:43:31;13.90;99.90
64654;DHT22;51065;48.884;12.598;2022-09-16T06:46:02;14.00;99.90
64654;DHT22;51065;48.884;12.598;2022-09-16T06:48:30;14.10;99.90
64654;DHT22;51065;48.884;12.598;2022-09-16T06:51:01;14.00;99.90
64654;DHT22;51065;48.884;12.598;2022-09-16T06:53:28;14.10;99.90
64654;DHT22;51065;48.884;12.598;2022-09-16T06:55:54;14.00;99.90
64654;DHT22;51065;48.884;12.598;2022-09-16T06:58:20;14.10;99.90
64654;DHT22;51065;48.884;12.598;2022-09-16T07:00:45;14.30;99.90
64654;DHT22;51065;48.884;12.598;2022-09-16T07:03:11;14.40;99.90
64654;DHT22;51065;48.884;12.598;2022-09-16T07:05:36;14.30;99.90
64654;DHT22;51065;48.884;12.598;2022-09-16T07:08:02;14.40;99.90
64654;DHT22;51065;48.884;12.598;2022-09-16T07:10:28;14.40;99.90
64654;DHT22;51065;48.884;12.598;2022-09-16T07:12:55;14.50;99.90
64654;DHT22;51065;48.884;12.598;2022-09-16T07:15:20;14.60;99.90
64654;DHT22;51065;48.884;12.598;2022-09-16T07:17:46;14.80;99.90
64654;DHT22;51065;48.884;12.598;2022-09-16T07:20:12;14.80;99.90
64654;DHT22;51065;48.884;12.598;2022-09-16T07:22:37;15.50;99.90
64654;DHT22;51065;48.884;12.598;2022-09-16T07:25:03;16.20;99.90
64654;DHT22;51065;48.884;12.598;2022-09-16T07:27:29;16.70;99.90
64654;DHT22;51065;48.884;12.598;2022-09-16T07:29:55;16.70;99.90
64654;DHT22;51065;48.884;12.598;2022-09-16T07:32:21;16.00;99.90
64654;DHT22;51065;48.884;12.598;2022-09-16T07:34:46;15.70;99.90
64654;DHT22;51065;48.884;12.598;2022-09-16T07:37:12;15.50;99.90
64654;DHT22;51065;48.884;12.598;2022-09-16T07:39:39;15.70;99.90
64654;DHT22;51065;48.884;12.598;2022-09-16T07:42:04;15.90;99.90
64654;DHT22;51065;48.884;12.598;2022-09-16T07:44:31;16.00;99.90
64654;DHT22;51065;48.884;12.598;2022-09-16T07:46:56;15.90;99.90
64654;DHT22;51065;48.884;12.598;2022-09-16T07:49:22;16.10;99.90
64654;DHT22;51065;48.884;12.598;2022-09-16T07:51:48;16.30;99.90
64654;DHT22;51065;48.884;12.598;2022-09-16T07:54:15;16.40;99.90
64654;DHT22;51065;48.884;12.598;2022-09-16T07:56:43;16.70;99.90
64654;DHT22;51065;48.884;12.598;2022-09-16T07:59:15;16.70;99.90
64654;DHT22;51065;48.884;12.598;2022-09-16T08:01:41;16.60;99.90
64654;DHT22;51065;48.884;12.598;2022-09-16T08:04:06;16.60;99.90
64654;DHT22;51065;48.884;12.598;2022-09-16T08:06:32;16.70;98.80
64654;DHT22;51065;48.884;12.598;2022-09-16T08:09:01;16.80;99.90
64654;DHT22;51065;48.884;12.598;2022-09-16T08:11:27;16.90;99.80
64654;DHT22;51065;48.884;12.598;2022-09-16T08:13:53;17.00;98.90
64654;DHT22;51065;48.884;12.598;2022-09-16T08:16:20;17.10;96.80
64654;DHT22;51065;48.884;12.598;2022-09-16T08:18:48;16.80;98.20
64654;DHT22;51065;48.884;12.598;2022-09-16T08:21:17;16.90;96.70
64654;DHT22;51065;48.884;12.598;2022-09-16T08:23:44;16.90;95.90
64654;DHT22;51065;48.884;12.598;2022-09-16T08:26:11;16.80;95.40
64654;DHT22;51065;48.884;12.598;2022-09-16T08:28:40;16.60;96.90
64654;DHT22;51065;48.884;12.598;2022-09-16T08:31:07;16.30;97.10
64654;DHT22;51065;48.884;12.598;2022-09-16T08:33:33;16.20;95.30
64654;DHT22;51065;48.884;12.598;2022-09-16T08:36:03;15.90;96.50
64654;DHT22;51065;48.884;12.598;2022-09-16T08:38:30;15.90;98.00
64654;DHT22;51065;48.884;12.598;2022-09-16T08:41:45;16.00;98.20
64654;DHT22;51065;48.884;12.598;2022-09-16T08:43:58;16.10;98.10
64654;DHT22;51065;48.884;12.598;2022-09-16T08:51:33;16.30;98.20
64654;DHT22;51065;48.884;12.598;2022-09-16T08:54:10;16.20;99.50
64654;DHT22;51065;48.884;12.598;2022-09-16T08:56:37;16.20;98.20
64654;DHT22;51065;48.884;12.598;2022-09-16T08:59:10;16.10;98.00
64654;DHT22;51065;48.884;12.598;2022-09-16T09:01:56;16.10;97.40
64654;DHT22;51065;48.884;12.598;2022-09-16T09:04:24;16.10;97.30
64654;DHT22;51065;48.884;12.598;2022-09-16T09:07:09;16.10;96.60
64654;DHT22;51065;48.884;12.598;2022-09-16T09:15:57;16.80;94.70
64654;DHT22;51065;48.884;12.598;2022-09-16T09:21:25;16.40;96.80
64654;DHT22;51065;48.884;12.598;2022-09-16T09:27:15;16.00;96.90
64654;DHT22;51065;48.884;12.598;2022-09-16T09:35:45;15.30;98.90
64654;DHT22;51065;48.884;12.598;2022-09-16T09:39:50;15.40;99.90
64654;DHT22;51065;48.884;12.598;2022-09-16T09:41:56;15.30;99.70
64654;DHT22;51065;48.884;12.598;2022-09-16T09:47:29;15.40;99.90
64654;DHT22;51065;48.884;12.598;2022-09-16T09:50:02;15.50;98.60
64654;DHT22;51065;48.884;12.598;2022-09-16T09:52:30;15.50;98.40
64654;DHT22;51065;48.884;12.598;2022-09-16T09:55:12;15.40;99.00
64654;DHT22;51065;48.884;12.598;2022-09-16T10:00:18;15.20;99.60
64654;DHT22;51065;48.884;12.598;2022-09-16T10:02:46;15.20;99.50
64654;DHT22;51065;48.884;12.598;2022-09-16T10:05:25;15.00;99.90
64654;DHT22;51065;48.884;12.598;2022-09-16T10:07:53;15.00;99.50
64654;DHT22;51065;48.884;12.598;2022-09-16T10:10:22;14.90;99.90
64654;DHT22;51065;48.884;12.598;2022-09-16T10:12:48;14.90;99.70
64654;DHT22;51065;48.884;12.598;2022-09-16T10:15:23;15.00;99.90
64654;DHT22;51065;48.884;12.598;2022-09-16T10:17:52;15.20;99.90
64654;DHT22;51065;48.884;12.598;2022-09-16T10:20:30;15.20;99.90
64654;DHT22;51065;48.884;12.598;2022-09-16T10:23:14;15.20;99.90
64654;DHT22;51065;48.884;12.598;2022-09-16T10:25:40;15.30;99.90
64654;DHT22;51065;48.884;12.598;2022-09-16T10:28:25;15.30;99.90
64654;DHT22;51065;48.884;12.598;2022-09-16T10:30:55;15.10;99.90
64654;DHT22;51065;48.884;12.598;2022-09-16T10:33:28;15.10;99.90
64654;DHT22;51065;48.884;12.598;2022-09-16T10:36:01;15.00;99.90
64654;DHT22;51065;48.884;12.598;2022-09-16T10:38:55;14.90;99.90
64654;DHT22;51065;48.884;12.598;2022-09-16T10:41:26;14.90;99.90
64654;DHT22;51065;48.884;12.598;2022-09-16T10:43:55;15.00;99.90
64654;DHT22;51065;48.884;12.598;2022-09-16T10:46:21;15.00;99.90
64654;DHT22;51065;48.884;12.598;2022-09-16T10:48:49;15.10;99.10
64654;DHT22;51065;48.884;12.598;2022-09-16T10:51:22;15.10;99.90
64654;DHT22;51065;48.884;12.598;2022-09-16T10:53:59;14.90;99.20
64654;DHT22;51065;48.884;12.598;2022-09-16T10:56:27;14.90;99.60
64654;DHT22;51065;48.884;12.598;2022-09-16T10:59:11;14.90;99.60
64654;DHT22;51065;48.884;12.598;2022-09-16T11:02:12;14.90;99.90
64654;DHT22;51065;48.884;12.598;2022-09-16T11:04:53;14.90;99.90
64654;DHT22;51065;48.884;12.598;2022-09-16T11:10:09;15.00;99.90
64654;DHT22;51065;48.884;12.598;2022-09-16T11:12:46;14.90;99.90
64654;DHT22;51065;48.884;12.598;2022-09-16T11:15:29;14.80;99.90
64654;DHT22;51065;48.884;12.598;2022-09-16T11:18:30;14.80;99.90
64654;DHT22;51065;48.884;12.598;2022-09-16T11:21:19;14.70;99.90
64654;DHT22;51065;48.884;12.598;2022-09-16T11:24:15;14.60;97.00
64654;DHT22;51065;48.884;12.598;2022-09-16T11:34:41;15.00;96.20
64654;DHT22;51065;48.884;12.598;2022-09-16T11:43:22;15.10;96.00
64654;DHT22;51065;48.884;12.598;2022-09-16T11:57:09;15.70;97.20
64654;DHT22;51065;48.884;12.598;2022-09-16T11:59:59;15.80;97.00
64654;DHT22;51065;48.884;12.598;2022-09-16T12:02:30;15.60;98.10
64654;DHT22;51065;48.884;12.598;2022-09-16T12:07:38;15.40;99.90
64654;DHT22;51065;48.884;12.598;2022-09-16T12:10:24;15.30;99.80
64654;DHT22;51065;48.884;12.598;2022-09-16T12:13:38;15.00;98.90
64654;DHT22;51065;48.884;12.598;2022-09-16T12:15:49;14.80;98.30
64654;DHT22;51065;48.884;12.598;2022-09-16T12:18:25;14.60;99.90
64654;DHT22;51065;48.884;12.598;2022-09-16T12:20:56;14.50;99.90
64654;DHT22;51065;48.884;12.598;2022-09-16T12:23:28;14.40;99.90
64654;DHT22;51065;48.884;12.598;2022-09-16T12:26:10;14.40;99.90
64654;DHT22;51065;48.884;12.598;2022-09-16T12:34:23;14.70;99.90
64654;DHT22;51065;48.884;12.598;2022-09-16T12:37:05;14.90;99.90
64654;DHT22;51065;48.884;12.598;2022-09-16T12:39:32;15.00;99.00
64654;DHT22;51065;48.884;12.598;2022-09-16T12:47:31;14.60;99.90
64654;DHT22;51065;48.884;12.598;2022-09-16T12:50:13;14.60;99.90
64654;DHT22;51065;48.884;12.598;2022-09-16T12:55:51;14.60;99.90
64654;DHT22;51065;48.884;12.598;2022-09-16T13:01:26;14.60;99.90
64654;DHT22;51065;48.884;12.598;2022-09-16T13:04:13;14.60;99.90
64654;DHT22;51065;48.884;12.598;2022-09-16T13:06:49;14.60;99.90
64654;DHT22;51065;48.884;12.598;2022-09-16T13:12:00;14.60;99.90
64654;DHT22;51065;48.884;12.598;2022-09-16T13:14:30;14.50;99.90
64654;DHT22;51065;48.884;12.598;2022-09-16T13:16:58;14.50;99.90
64654;DHT22;51065;48.884;12.598;2022-09-16T13:19:48;14.40;99.90
64654;DHT22;51065;48.884;12.598;2022-09-16T13:27:40;14.40;99.90
64654;DHT22;51065;48.884;12.598;2022-09-16T13:30:33;14.40;99.90
64654;DHT22;51065;48.884;12.598;2022-09-16T13:33:01;14.40;99.90
64654;DHT22;51065;48.884;12.598;2022-09-16T13:37:58;14.20;99.90
64654;DHT22;51065;48.884;12.598;2022-09-16T13:40:26;14.10;99.90
64654;DHT22;51065;48.884;12.598;2022-09-16T13:43:27;14.10;99.90
64654;DHT22;51065;48.884;12.598;2022-09-16T13:46:10;14.10;99.90
64654;DHT22;51065;48.884;12.598;2022-09-16T13:51:31;14.30;99.90
64654;DHT22;51065;48.884;12.598;2022-09-16T13:53:58;14.40;99.90
64654;DHT22;51065;48.884;12.598;2022-09-16T14:01:55;14.70;99.90
64654;DHT22;51065;48.884;12.598;2022-09-16T14:07:50;14.70;99.90
64654;DHT22;51065;48.884;12.598;2022-09-16T14:13:21;14.20;99.90
64654;DHT22;51065;48.884;12.598;2022-09-16T14:15:52;14.10;99.90
64654;DHT22;51065;48.884;12.598;2022-09-16T14:18:23;14.00;99.90
64654;DHT22;51065;48.884;12.598;2022-09-16T14:21:17;14.10;99.90
64654;DHT22;51065;48.884;12.598;2022-09-16T14:23:43;14.10;99.90
64654;DHT22;51065;48.884;12.598;2022-09-16T14:26:11;14.10;99.90
64654;DHT22;51065;48.884;12.598;2022-09-16T14:28:37;14.20;99.90
64654;DHT22;51065;48.884;12.598;2022-09-16T14:31:06;14.40;99.90
64654;DHT22;51065;48.884;12.598;2022-09-16T14:33:42;14.60;99.90
64654;DHT22;51065;48.884;12.598;2022-09-16T14:36:18;14.70;99.90
64654;DHT22;51065;48.884;12.598;2022-09-16T14:39:03;14.70;99.90
64654;DHT22;51065;48.884;12.598;2022-09-16T14:44:35;14.90;99.90
64654;DHT22;51065;48.884;12.598;2022-09-16T14:47:14;15.00;99.90
64654;DHT22;51065;48.884;12.598;2022-09-16T14:49:42;15.00;99.60
64654;DHT22;51065;48.884;12.598;2022-09-16T14:52:18;15.00;99.90
64654;DHT22;51065;48.884;12.598;2022-09-16T14:54:44;15.10;99.10
64654;DHT22;51065;48.884;12.598;2022-09-16T14:57:21;15.20;99.50
64654;DHT22;51065;48.884;12.598;2022-09-16T14:59:49;15.20;99.90
64654;DHT22;51065;48.884;12.598;2022-09-16T15:02:22;15.00;99.90
64654;DHT22;51065;48.884;12.598;2022-09-16T15:05:17;15.10;99.20
64654;DHT22;51065;48.884;12.598;2022-09-16T15:07:45;15.00;98.00
64654;DHT22;51065;48.884;12.598;2022-09-16T15:10:21;14.80;96.60
64654;DHT22;51065;48.884;12.598;2022-09-16T15:12:56;14.70;98.90
64654;DHT22;51065;48.884;12.598;2022-09-16T15:15:25;14.60;97.40
64654;DHT22;51065;48.884;12.598;2022-09-16T15:18:18;14.60;99.30
64654;DHT22;51065;48.884;12.598;2022-09-16T15:20:51;14.60;98.90
64654;DHT22;51065;48.884;12.598;2022-09-16T15:23:24;14.70;99.10
64654;DHT22;51065;48.884;12.598;2022-09-16T15:25:53;14.80;99.90
64654;DHT22;51065;48.884;12.598;2022-09-16T15:28:20;14.80;99.30
64654;DHT22;51065;48.884;12.598;2022-09-16T15:30:51;14.80;99.60
64654;DHT22;51065;48.884;12.598;2022-09-16T15:33:35;14.70;99.90
64654;DHT22;51065;48.884;12.598;2022-09-16T15:36:01;14.40;99.90
64654;DHT22;51065;48.884;12.598;2022-09-16T15:38:28;14.30;99.90
64654;DHT22;51065;48.884;12.598;2022-09-16T15:41:20;14.10;99.90
64654;DHT22;51065;48.884;12.598;2022-09-16T15:43:45;14.10;99.90
64654;DHT22;51065;48.884;12.598;2022-09-16T15:46:20;14.00;99.90
64654;DHT22;51065;48.884;12.598;2022-09-16T15:48:50;14.00;99.90
64654;DHT22;51065;48.884;12.598;2022-09-16T15:51:35;14.00;99.90
64654;DHT22;51065;48.884;12.598;2022-09-16T15:57:07;14.00;99.90
64654;DHT22;51065;48.884;12.598;2022-09-16T16:02:23;13.90;99.90
64654;DHT22;51065;48.884;12.598;2022-09-16T16:04:49;13.80;99.90
64654;DHT22;51065;48.884;12.598;2022-09-16T16:07:56;13.80;99.90
64654;DHT22;51065;48.884;12.598;2022-09-16T16:10:35;13.90;99.90
64654;DHT22;51065;48.884;12.598;2022-09-16T16:13:01;13.90;99.90
64654;DHT22;51065;48.884;12.598;2022-09-16T16:15:32;13.90;99.90
64654;DHT22;51065;48.884;12.598;2022-09-16T16:18:01;13.90;99.90
64654;DHT22;51065;48.884;12.598;2022-09-16T16:20:28;13.90;99.90
64654;DHT22;51065;48.884;12.598;2022-09-16T16:22:57;13.90;99.90
64654;DHT22;51065;48.884;12.598;2022-09-16T16:25:22;14.00;99.90
64654;DHT22;51065;48.884;12.598;2022-09-16T16:27:48;14.00;99.90
64654;DHT22;51065;48.884;12.598;2022-09-16T16:30:13;13.90;99.90
64654;DHT22;51065;48.884;12.598;2022-09-16T16:32:39;13.70;99.90
64654;DHT22;51065;48.884;12.598;2022-09-16T16:35:05;13.60;99.90
64654;DHT22;51065;48.884;12.598;2022-09-16T16:37:30;13.40;99.90
64654;DHT22;51065;48.884;12.598;2022-09-16T16:39:56;13.30;99.90
64654;DHT22;51065;48.884;12.598;2022-09-16T16:42:22;13.30;99.90
64654;DHT22;51065;48.884;12.598;2022-09-16T16:44:49;13.30;99.90
64654;DHT22;51065;48.884;12.598;2022-09-16T16:47:14;13.30;99.90
64654;DHT22;51065;48.884;12.598;2022-09-16T16:49:40;13.20;99.90
64654;DHT22;51065;48.884;12.598;2022-09-16T16:52:06;13.20;99.90
64654;DHT22;51065;48.884;12.598;2022-09-16T16:54:33;13.10;99.90
64654;DHT22;51065;48.884;12.598;2022-09-16T16:56:59;13.10;99.90
64654;DHT22;51065;48.884;12.598;2022-09-16T16:59:25;13.00;99.90
64654;DHT22;51065;48.884;12.598;2022-09-16T17:01:54;12.90;99.90
64654;DHT22;51065;48.884;12.598;2022-09-16T17:04:21;12.90;99.90
64654;DHT22;51065;48.884;12.598;2022-09-16T17:06:46;13.00;99.90
64654;DHT22;51065;48.884;12.598;2022-09-16T17:09:13;13.00;99.90
64654;DHT22;51065;48.884;12.598;2022-09-16T17:14:16;12.90;99.90
64654;DHT22;51065;48.884;12.598;2022-09-16T17:16:42;12.90;99.90
64654;DHT22;51065;48.884;12.598;2022-09-16T17:19:11;12.90;99.90
64654;DHT22;51065;48.884;12.598;2022-09-16T17:21:37;12.90;99.90
64654;DHT22;51065;48.884;12.598;2022-09-16T17:24:04;12.90;99.90
64654;DHT22;51065;48.884;12.598;2022-09-16T17:26:30;12.80;99.90
64654;DHT22;51065;48.884;12.598;2022-09-16T17:28:55;12.80;99.90
64654;DHT22;51065;48.884;12.598;2022-09-16T17:31:31;12.70;99.90
64654;DHT22;51065;48.884;12.598;2022-09-16T17:33:59;12.70;99.90
64654;DHT22;51065;48.884;12.598;2022-09-16T17:36:28;12.70;99.90
64654;DHT22;51065;48.884;12.598;2022-09-16T17:38:58;12.70;99.90
64654;DHT22;51065;48.884;12.598;2022-09-16T17:41:25;12.60;99.90
64654;DHT22;51065;48.884;12.598;2022-09-16T17:43:55;12.60;99.90
64654;DHT22;51065;48.884;12.598;2022-09-16T17:46:21;12.60;99.90
64654;DHT22;51065;48.884;12.598;2022-09-16T17:48:49;12.60;99.90
64654;DHT22;51065;48.884;12.598;2022-09-16T17:51:18;12.60;99.90
64654;DHT22;51065;48.884;12.598;2022-09-16T17:53:44;12.60;99.90
64654;DHT22;51065;48.884;12.598;2022-09-16T17:56:14;12.50;99.90
64654;DHT22;51065;48.884;12.598;2022-09-16T17:58:42;12.40;99.90
64654;DHT22;51065;48.884;12.598;2022-09-16T18:01:16;12.20;99.90
64654;DHT22;51065;48.884;12.598;2022-09-16T18:03:45;12.20;99.90
64654;DHT22;51065;48.884;12.598;2022-09-16T18:06:23;12.20;99.90
64654;DHT22;51065;48.884;12.598;2022-09-16T18:08:50;12.10;99.90
64654;DHT22;51065;48.884;12.598;2022-09-16T18:11:17;12.00;99.90
64654;DHT22;51065;48.884;12.598;2022-09-16T18:13:43;11.90;99.90
64654;DHT22;51065;48.884;12.598;2022-09-16T18:16:21;11.90;99.90
64654;DHT22;51065;48.884;12.598;2022-09-16T18:18:52;11.80;99.90
64654;DHT22;51065;48.884;12.598;2022-09-16T18:21:19;11.70;99.90